Terminal Aerodrome Forecast
Issued by NWS Hastings, NE

Home | Current Version | Previous Version | Text Only | Print | Product List | Glossary On
Versions: 1 2 3 4 5 6 7 8 9 10 11 12 13 14 15 16 17 18 19 20 21 22 23 24 25
000
FTUS43 KGID 282327
TAFGRI
TAF
KGRI 282327Z 2900/2924 03014G23KT 2SM -DZ BR OVC008
     FM290300 02012KT P6SM OVC020
     FM291000 02012G19KT P6SM VCSH OVC020
     FM291400 03018G26KT 6SM -RA OVC010
     FM291800 02022G30KT 5SM RA OVC020
     FM292200 02020G28KT 6SM RA OVC015=

USA.gov is the U.S. government's official web portal to all federal, state and local government web resources and services.